createdAt,value
2018-10-07T00:00:49.219Z,985.58
2018-10-07T00:01:49.396Z,985.58
2018-10-07T00:02:49.572Z,985.58
2018-10-07T00:03:49.752Z,985.58
2018-10-07T00:04:49.929Z,985.60
2018-10-07T00:05:50.109Z,985.58
2018-10-07T00:06:50.289Z,985.62
2018-10-07T00:07:50.466Z,985.63
2018-10-07T00:08:50.652Z,985.66
2018-10-07T00:09:50.823Z,985.67
2018-10-07T00:10:51.005Z,985.65
2018-10-07T00:11:51.177Z,985.64
2018-10-07T00:12:51.366Z,985.64
2018-10-07T00:13:51.537Z,985.65
2018-10-07T00:14:51.715Z,985.64
2018-10-07T00:15:51.893Z,985.67
2018-10-07T00:16:52.076Z,985.65
2018-10-07T00:17:52.254Z,985.63
2018-10-07T00:18:52.431Z,985.68
2018-10-07T00:19:52.607Z,985.74
2018-10-07T00:20:52.785Z,985.69
2018-10-07T00:21:52.961Z,985.70
2018-10-07T00:22:53.144Z,985.72
2018-10-07T00:23:53.322Z,985.68
2018-10-07T00:24:53.500Z,985.65
2018-10-07T00:25:53.677Z,985.66
2018-10-07T00:26:53.860Z,985.71
2018-10-07T00:27:54.037Z,985.73
2018-10-07T00:28:54.215Z,985.71
2018-10-07T00:29:54.393Z,985.76
2018-10-07T00:30:54.572Z,985.76
2018-10-07T00:31:54.749Z,985.74
2018-10-07T00:32:54.929Z,985.76
2018-10-07T00:33:55.104Z,985.72
2018-10-07T00:34:55.284Z,985.70
2018-10-07T00:35:55.461Z,985.73
2018-10-07T00:36:55.647Z,985.71
2018-10-07T00:37:55.819Z,985.73
2018-10-07T00:38:55.996Z,985.74
2018-10-07T00:39:56.175Z,985.72
2018-10-07T00:40:56.355Z,985.76
2018-10-07T00:41:56.537Z,985.77
2018-10-07T00:42:56.710Z,985.79
2018-10-07T00:43:56.889Z,985.80
2018-10-07T00:44:57.065Z,985.87
2018-10-07T00:45:57.241Z,985.87
2018-10-07T00:46:57.424Z,985.85
2018-10-07T00:47:57.606Z,985.86
2018-10-07T00:48:57.789Z,985.87
2018-10-07T00:49:57.966Z,985.86
2018-10-07T00:50:58.141Z,985.87
2018-10-07T00:51:58.318Z,985.93
2018-10-07T00:52:58.496Z,985.92
2018-10-07T00:53:58.676Z,985.90
2018-10-07T00:54:58.849Z,985.92
2018-10-07T00:55:59.028Z,985.91
2018-10-07T00:56:59.203Z,985.91
2018-10-07T00:57:59.388Z,985.93
2018-10-07T00:58:59.564Z,985.92
2018-10-07T00:59:59.738Z,985.86
2018-10-07T01:00:59.921Z,985.97
2018-10-07T01:02:00.101Z,985.96
2018-10-07T01:03:00.279Z,985.94
2018-10-07T01:04:00.450Z,985.93
2018-10-07T01:05:00.631Z,985.93
2018-10-07T01:06:00.811Z,985.94
2018-10-07T01:07:00.992Z,985.91
2018-10-07T01:08:01.165Z,985.93
2018-10-07T01:09:01.335Z,985.93
2018-10-07T01:10:01.514Z,985.91
2018-10-07T01:11:01.697Z,985.87
2018-10-07T01:12:01.873Z,985.85
2018-10-07T01:13:02.039Z,985.90
2018-10-07T01:14:02.218Z,985.90
2018-10-07T01:15:02.403Z,985.96
2018-10-07T01:16:02.568Z,985.86
2018-10-07T01:17:02.748Z,985.94
2018-10-07T01:18:02.935Z,985.92
2018-10-07T01:19:03.121Z,985.96
2018-10-07T01:20:03.286Z,985.94
2018-10-07T01:21:03.471Z,985.93
2018-10-07T01:22:03.639Z,985.95
2018-10-07T01:23:03.811Z,985.98
2018-10-07T01:24:03.990Z,985.98
2018-10-07T01:25:04.172Z,985.93
2018-10-07T01:26:04.344Z,985.90
2018-10-07T01:27:04.533Z,985.94
2018-10-07T01:28:04.701Z,985.96
2018-10-07T01:29:04.870Z,985.94
2018-10-07T01:30:05.047Z,985.99
2018-10-07T01:31:05.228Z,986.00
2018-10-07T01:32:05.400Z,986.05
2018-10-07T01:33:05.574Z,986.03
2018-10-07T01:34:05.754Z,986.07
2018-10-07T01:35:05.933Z,986.04
2018-10-07T01:36:06.118Z,986.02
2018-10-07T01:37:06.291Z,986.00
2018-10-07T01:38:06.472Z,985.99
2018-10-07T01:39:06.648Z,986.02
2018-10-07T01:40:06.823Z,986.08
2018-10-07T01:41:07.000Z,986.11
2018-10-07T01:42:07.188Z,986.11
2018-10-07T01:43:07.360Z,986.11
2018-10-07T01:44:07.541Z,986.08
2018-10-07T01:45:07.720Z,986.05
2018-10-07T01:46:07.896Z,986.03
2018-10-07T01:47:08.073Z,986.01
2018-10-07T01:48:08.252Z,986.05
2018-10-07T01:49:08.424Z,986.02
2018-10-07T01:50:08.605Z,986.03
2018-10-07T01:51:08.782Z,986.04
2018-10-07T01:52:09.010Z,986.14
2018-10-07T01:53:09.138Z,986.10
2018-10-07T01:54:09.316Z,986.08
2018-10-07T01:55:09.493Z,986.06
2018-10-07T01:56:09.672Z,986.07
2018-10-07T01:57:09.849Z,986.11
2018-10-07T01:58:10.021Z,986.11
2018-10-07T01:59:10.214Z,986.08
2018-10-07T02:00:10.382Z,986.10
2018-10-07T02:01:10.550Z,986.12
2018-10-07T02:02:10.722Z,986.13
2018-10-07T02:03:10.905Z,986.16
2018-10-07T02:04:11.082Z,986.18
2018-10-07T02:05:11.339Z,986.21
2018-10-07T02:06:11.444Z,986.18
2018-10-07T02:07:11.615Z,986.21
2018-10-07T02:08:11.794Z,986.20
2018-10-07T02:09:11.975Z,986.19
2018-10-07T02:10:12.150Z,986.21
2018-10-07T02:11:12.326Z,986.17
2018-10-07T02:12:12.504Z,986.20
2018-10-07T02:13:12.680Z,986.19
2018-10-07T02:14:12.859Z,986.21
2018-10-07T02:15:13.043Z,986.22
2018-10-07T02:16:13.210Z,986.18
2018-10-07T02:17:13.407Z,986.21
2018-10-07T02:18:13.573Z,986.22
2018-10-07T02:19:13.743Z,986.20
2018-10-07T02:20:13.922Z,986.17
2018-10-07T02:21:14.103Z,986.18
2018-10-07T02:22:14.285Z,986.21
2018-10-07T02:23:14.453Z,986.21
2018-10-07T02:24:14.637Z,986.21
2018-10-07T02:25:14.811Z,986.21
2018-10-07T02:26:14.982Z,986.24
2018-10-07T02:27:15.165Z,986.28
2018-10-07T02:28:15.340Z,986.29
2018-10-07T02:29:15.521Z,986.32
2018-10-07T02:30:15.697Z,986.33
2018-10-07T02:31:15.876Z,986.30
2018-10-07T02:32:16.052Z,986.30
2018-10-07T02:33:16.230Z,986.34
2018-10-07T02:34:16.409Z,986.35
2018-10-07T02:35:16.583Z,986.37
2018-10-07T02:36:16.761Z,986.39
2018-10-07T02:37:16.942Z,986.38
2018-10-07T02:38:17.126Z,986.34
2018-10-07T02:39:17.295Z,986.42
2018-10-07T02:40:17.483Z,986.41
2018-10-07T02:41:17.652Z,986.44
2018-10-07T02:42:17.827Z,986.46
2018-10-07T02:43:18.005Z,986.45
2018-10-07T02:44:18.187Z,986.44
2018-10-07T02:45:18.365Z,986.43
2018-10-07T02:46:18.540Z,986.49
2018-10-07T02:47:18.718Z,986.56
2018-10-07T02:48:18.900Z,986.59
2018-10-07T02:49:19.073Z,986.62
2018-10-07T02:50:19.262Z,986.65
2018-10-07T02:51:19.427Z,986.66
2018-10-07T02:52:19.609Z,986.65
2018-10-07T02:53:19.870Z,986.64
2018-10-07T02:54:19.956Z,986.61
2018-10-07T02:55:20.138Z,986.64
2018-10-07T02:56:20.314Z,986.63
2018-10-07T02:57:20.491Z,986.66
2018-10-07T02:58:20.677Z,986.65
2018-10-07T02:59:20.846Z,986.66
2018-10-07T03:00:21.024Z,986.67
2018-10-07T03:01:21.201Z,986.70
2018-10-07T03:02:21.383Z,986.69
2018-10-07T03:03:21.560Z,986.71
2018-10-07T03:04:21.744Z,986.72
2018-10-07T03:05:21.928Z,986.71
2018-10-07T03:06:22.101Z,986.74
2018-10-07T03:07:22.279Z,986.75
2018-10-07T03:08:22.458Z,986.81
2018-10-07T03:09:22.643Z,986.86
2018-10-07T03:10:22.818Z,986.84
2018-10-07T03:11:22.996Z,986.81
2018-10-07T03:12:23.172Z,986.82
2018-10-07T03:13:23.360Z,986.78
2018-10-07T03:14:23.523Z,986.83
2018-10-07T03:15:23.701Z,986.80
2018-10-07T03:16:23.877Z,986.82
2018-10-07T03:17:24.052Z,986.78
2018-10-07T03:18:24.235Z,986.80
2018-10-07T03:19:24.406Z,986.78
2018-10-07T03:20:24.587Z,986.80
2018-10-07T03:21:24.763Z,986.80
2018-10-07T03:22:24.939Z,986.75
2018-10-07T03:23:25.117Z,986.71
2018-10-07T03:24:25.302Z,986.74
2018-10-07T03:25:25.479Z,986.85
2018-10-07T03:26:25.663Z,986.89
2018-10-07T03:27:25.841Z,986.81
2018-10-07T03:28:26.017Z,986.84
2018-10-07T03:29:26.306Z,986.83
2018-10-07T03:30:26.373Z,986.89
2018-10-07T03:31:26.553Z,986.90
2018-10-07T03:32:26.725Z,986.92
2018-10-07T03:33:26.901Z,986.97
2018-10-07T03:34:27.085Z,986.96
2018-10-07T03:35:27.259Z,987.01
2018-10-07T03:36:27.437Z,986.98
2018-10-07T03:37:27.613Z,987.02
2018-10-07T03:38:27.792Z,987.08
2018-10-07T03:39:27.971Z,987.09
2018-10-07T03:40:28.146Z,987.02
2018-10-07T03:41:28.328Z,987.04
2018-10-07T03:42:28.502Z,987.10
2018-10-07T03:43:28.677Z,987.09
2018-10-07T03:44:28.853Z,987.11
2018-10-07T03:45:29.032Z,987.14
2018-10-07T03:46:29.208Z,987.14
2018-10-07T03:47:29.394Z,987.09
2018-10-07T03:48:29.566Z,987.14
2018-10-07T03:49:29.740Z,987.16
2018-10-07T03:50:29.918Z,987.16
2018-10-07T03:51:30.112Z,987.11
2018-10-07T03:52:30.283Z,987.15
2018-10-07T03:53:30.445Z,987.22
2018-10-07T03:54:30.625Z,987.23
2018-10-07T03:55:30.805Z,987.25
2018-10-07T03:56:30.971Z,987.29
2018-10-07T03:57:31.147Z,987.26
2018-10-07T03:58:31.325Z,987.29
2018-10-07T03:59:31.513Z,987.35
2018-10-07T04:00:31.692Z,987.32
2018-10-07T04:01:31.871Z,987.26
2018-10-07T04:02:32.040Z,987.27
2018-10-07T04:03:32.218Z,987.29
2018-10-07T04:04:32.398Z,987.27
2018-10-07T04:05:32.576Z,987.28
2018-10-07T04:06:32.754Z,987.33
2018-10-07T04:07:32.936Z,987.35
2018-10-07T04:08:33.104Z,987.35
2018-10-07T04:09:33.279Z,987.37
2018-10-07T04:10:33.453Z,987.35
2018-10-07T04:11:33.629Z,987.40
2018-10-07T04:12:33.804Z,987.42
2018-10-07T04:13:33.990Z,987.45
2018-10-07T04:14:34.159Z,987.44
2018-10-07T04:15:34.335Z,987.44
2018-10-07T04:16:34.513Z,987.52
2018-10-07T04:17:34.692Z,987.60
2018-10-07T04:18:34.867Z,987.62
2018-10-07T04:19:35.048Z,987.61
2018-10-07T04:20:35.232Z,987.61
2018-10-07T04:21:35.392Z,987.60
2018-10-07T04:22:35.576Z,987.57
2018-10-07T04:23:35.755Z,987.58
2018-10-07T04:24:35.932Z,987.59
2018-10-07T04:25:36.114Z,987.63
2018-10-07T04:26:36.287Z,987.67
2018-10-07T04:27:36.464Z,987.60
2018-10-07T04:28:36.643Z,987.68
2018-10-07T04:29:36.820Z,987.70
2018-10-07T04:30:36.995Z,987.74
2018-10-07T04:31:37.173Z,987.72
2018-10-07T04:32:37.347Z,987.74
2018-10-07T04:33:37.529Z,987.72
2018-10-07T04:34:37.707Z,987.68
2018-10-07T04:35:37.885Z,987.62
2018-10-07T04:36:38.048Z,987.59
2018-10-07T04:37:38.243Z,987.57
2018-10-07T04:38:38.413Z,987.54
2018-10-07T04:39:38.620Z,987.54
2018-10-07T04:40:38.767Z,987.62
2018-10-07T04:41:38.942Z,987.66
2018-10-07T04:42:39.117Z,987.68
2018-10-07T04:43:39.295Z,987.70
2018-10-07T04:44:39.476Z,987.68
2018-10-07T04:45:39.650Z,987.67
2018-10-07T04:46:39.835Z,987.72
2018-10-07T04:47:40.005Z,987.78
2018-10-07T04:48:40.182Z,987.77
2018-10-07T04:49:40.361Z,987.78
2018-10-07T04:50:40.551Z,987.78
2018-10-07T04:51:40.716Z,987.82
2018-10-07T04:52:40.893Z,987.83
2018-10-07T04:53:41.073Z,987.91
2018-10-07T04:54:41.248Z,987.91
2018-10-07T04:55:41.426Z,987.91
2018-10-07T04:56:41.604Z,987.82
2018-10-07T04:57:41.781Z,987.80
2018-10-07T04:58:41.961Z,987.87
2018-10-07T04:59:42.134Z,987.93
2018-10-07T05:00:42.311Z,987.97
2018-10-07T05:01:42.488Z,987.98
2018-10-07T05:02:42.666Z,987.98
2018-10-07T05:03:42.841Z,987.98
2018-10-07T05:04:43.021Z,988.01
2018-10-07T05:05:43.199Z,987.98
2018-10-07T05:06:43.372Z,987.96
2018-10-07T05:07:43.553Z,987.97
2018-10-07T05:08:43.729Z,988.02
2018-10-07T05:09:43.911Z,988.13
2018-10-07T05:10:44.085Z,988.11
2018-10-07T05:11:44.264Z,988.14
2018-10-07T05:12:44.477Z,988.10
2018-10-07T05:13:44.639Z,988.14
2018-10-07T05:14:44.796Z,988.17
2018-10-07T05:15:44.972Z,988.24
2018-10-07T05:16:45.151Z,988.24
2018-10-07T05:17:45.325Z,988.32
2018-10-07T05:18:45.501Z,988.35
2018-10-07T05:19:45.678Z,988.36
2018-10-07T05:20:45.879Z,988.40
2018-10-07T05:21:46.029Z,988.39
2018-10-07T05:22:46.205Z,988.34
2018-10-07T05:23:46.387Z,988.29
2018-10-07T05:24:46.561Z,988.34
2018-10-07T05:25:46.741Z,988.28
2018-10-07T05:26:46.922Z,988.28
2018-10-07T05:27:47.093Z,988.31
2018-10-07T05:28:47.272Z,988.28
2018-10-07T05:29:47.447Z,988.30
2018-10-07T05:30:47.631Z,988.34
2018-10-07T05:31:47.794Z,988.35
2018-10-07T05:32:47.964Z,988.38
2018-10-07T05:33:48.135Z,988.43
2018-10-07T05:34:48.313Z,988.50
2018-10-07T05:35:48.484Z,988.51
2018-10-07T05:36:48.655Z,988.59
2018-10-07T05:37:48.832Z,988.60
2018-10-07T05:38:49.007Z,988.61
2018-10-07T05:39:49.189Z,988.59
2018-10-07T05:40:49.361Z,988.61
2018-10-07T05:41:49.541Z,988.61
2018-10-07T05:42:49.726Z,988.64
2018-10-07T05:43:49.890Z,988.69
2018-10-07T05:44:50.130Z,988.74
2018-10-07T05:45:50.247Z,988.77
2018-10-07T05:46:50.436Z,988.74
2018-10-07T05:47:50.600Z,988.79
2018-10-07T05:48:50.779Z,988.75
2018-10-07T05:49:50.956Z,988.77
2018-10-07T05:50:51.134Z,988.84
2018-10-07T05:51:51.313Z,988.87
2018-10-07T05:52:51.482Z,988.88
2018-10-07T05:53:51.658Z,988.91
2018-10-07T05:54:51.839Z,988.92
2018-10-07T05:55:52.016Z,988.92
2018-10-07T05:56:52.188Z,988.95
2018-10-07T05:57:52.360Z,988.99
2018-10-07T05:58:52.538Z,989.02
2018-10-07T05:59:52.716Z,989.02
2018-10-07T06:00:52.897Z,989.02
2018-10-07T06:01:53.206Z,989.08
2018-10-07T06:02:53.249Z,989.10
2018-10-07T06:03:53.439Z,989.09
2018-10-07T06:04:53.602Z,989.13
2018-10-07T06:05:53.777Z,989.15
2018-10-07T06:06:53.956Z,989.18
2018-10-07T06:07:54.131Z,989.23
2018-10-07T06:08:54.306Z,989.21
2018-10-07T06:09:54.488Z,989.13
2018-10-07T06:10:54.668Z,989.10
2018-10-07T06:11:54.842Z,989.09
2018-10-07T06:12:55.023Z,989.12
2018-10-07T06:13:55.196Z,989.14
2018-10-07T06:14:55.428Z,989.20
2018-10-07T06:15:55.551Z,989.21
2018-10-07T06:16:55.733Z,989.30
2018-10-07T06:17:55.938Z,989.31
2018-10-07T06:18:56.071Z,989.35
2018-10-07T06:19:56.251Z,989.38
2018-10-07T06:20:56.430Z,989.33
2018-10-07T06:21:56.604Z,989.36
2018-10-07T06:22:56.782Z,989.40
2018-10-07T06:23:56.964Z,989.45
2018-10-07T06:24:57.135Z,989.50
2018-10-07T06:25:57.312Z,989.57
2018-10-07T06:26:57.491Z,989.60
2018-10-07T06:27:57.669Z,989.50
2018-10-07T06:28:57.843Z,989.58
2018-10-07T06:29:58.124Z,989.57
2018-10-07T06:30:58.261Z,989.58
2018-10-07T06:31:58.432Z,989.58
2018-10-07T06:32:58.610Z,989.61
2018-10-07T06:33:58.796Z,989.58
2018-10-07T06:34:58.950Z,989.67
2018-10-07T06:35:59.129Z,989.65
2018-10-07T06:36:59.301Z,989.66
2018-10-07T06:37:59.482Z,989.70
2018-10-07T06:38:59.662Z,989.73
2018-10-07T06:39:59.980Z,989.75
2018-10-07T06:41:00.016Z,989.77
2018-10-07T06:42:00.192Z,989.76
2018-10-07T06:43:00.367Z,989.78
2018-10-07T06:44:00.546Z,989.80
2018-10-07T06:45:00.724Z,989.82
2018-10-07T06:46:00.902Z,989.77
2018-10-07T06:47:01.081Z,989.80
2018-10-07T06:48:01.257Z,989.81
2018-10-07T06:49:01.413Z,989.84
2018-10-07T06:50:01.605Z,989.86
2018-10-07T06:51:01.764Z,989.85
2018-10-07T06:52:01.934Z,989.88
2018-10-07T06:53:02.116Z,989.90
2018-10-07T06:54:02.290Z,989.95
2018-10-07T06:55:02.502Z,989.97
2018-10-07T06:56:02.669Z,990.02
2018-10-07T06:57:02.845Z,990.03
2018-10-07T06:58:03.024Z,990.01
2018-10-07T06:59:03.221Z,990.02
2018-10-07T07:00:03.390Z,989.98
2018-10-07T07:01:03.567Z,989.96
2018-10-07T07:02:03.749Z,989.98
2018-10-07T07:03:04.079Z,989.98
2018-10-07T07:04:04.089Z,989.97
2018-10-07T07:05:04.263Z,989.98
2018-10-07T07:06:04.435Z,990.01
2018-10-07T07:07:04.621Z,990.00
2018-10-07T07:08:04.795Z,989.96
2018-10-07T07:09:04.969Z,989.98
2018-10-07T07:10:05.150Z,989.99
2018-10-07T07:11:05.318Z,990.03
2018-10-07T07:12:05.502Z,990.04
2018-10-07T07:13:05.744Z,990.05
2018-10-07T07:14:05.850Z,990.06
2018-10-07T07:15:06.027Z,990.13
2018-10-07T07:16:06.210Z,990.18
2018-10-07T07:17:06.384Z,990.14
2018-10-07T07:18:06.564Z,990.16
2018-10-07T07:19:06.733Z,990.21
2018-10-07T07:20:06.912Z,990.22
2018-10-07T07:21:07.090Z,990.23
2018-10-07T07:22:07.282Z,990.23
2018-10-07T07:23:07.439Z,990.24
2018-10-07T07:24:07.616Z,990.27
2018-10-07T07:25:07.792Z,990.29
2018-10-07T07:26:07.972Z,990.32
2018-10-07T07:27:08.140Z,990.31
2018-10-07T07:28:08.369Z,990.34
2018-10-07T07:29:08.495Z,990.37
2018-10-07T07:30:08.678Z,990.37
2018-10-07T07:31:08.849Z,990.37
2018-10-07T07:32:09.041Z,990.41
2018-10-07T07:33:09.213Z,990.48
2018-10-07T07:34:09.391Z,990.51
2018-10-07T07:35:09.564Z,990.44
2018-10-07T07:36:09.737Z,990.44
2018-10-07T07:37:09.949Z,990.41
2018-10-07T07:38:10.093Z,990.43
2018-10-07T07:39:10.269Z,990.45
2018-10-07T07:40:10.444Z,990.47
2018-10-07T07:41:10.636Z,990.41
2018-10-07T07:42:10.846Z,990.46
2018-10-07T07:43:10.982Z,990.47
2018-10-07T07:44:11.165Z,990.47
2018-10-07T07:45:11.328Z,990.50
2018-10-07T07:46:11.505Z,990.49
2018-10-07T07:47:11.670Z,990.56
2018-10-07T07:48:11.851Z,990.61
2018-10-07T07:49:12.095Z,990.59
2018-10-07T07:50:12.208Z,990.64
2018-10-07T07:51:12.381Z,990.63
2018-10-07T07:52:12.584Z,990.68
2018-10-07T07:53:12.739Z,990.69
2018-10-07T07:54:12.926Z,990.70
2018-10-07T07:55:13.101Z,990.77
2018-10-07T07:56:13.280Z,990.77
2018-10-07T07:57:13.460Z,990.75
2018-10-07T07:58:13.640Z,990.79
2018-10-07T07:59:13.820Z,990.84
2018-10-07T08:00:14.001Z,990.88
2018-10-07T08:01:14.180Z,990.90
2018-10-07T08:02:14.362Z,990.86
2018-10-07T08:03:14.539Z,990.92
2018-10-07T08:04:14.723Z,990.93
2018-10-07T08:05:15.126Z,990.94
2018-10-07T08:06:16.514Z,990.98
2018-10-07T08:07:15.253Z,990.98
2018-10-07T08:08:15.427Z,991.01
2018-10-07T08:09:15.605Z,991.02
2018-10-07T08:10:15.787Z,991.03
2018-10-07T08:11:15.962Z,991.03
2018-10-07T08:12:16.140Z,991.08
2018-10-07T08:13:16.311Z,991.09
2018-10-07T08:14:16.520Z,991.10
2018-10-07T08:15:16.647Z,991.15
2018-10-07T08:16:16.888Z,991.14
2018-10-07T08:17:17.027Z,991.15
2018-10-07T08:18:17.182Z,991.16
2018-10-07T08:19:17.328Z,991.20
2018-10-07T08:20:17.500Z,991.26
2018-10-07T08:21:17.680Z,991.31
2018-10-07T08:22:17.855Z,991.28
2018-10-07T08:23:18.036Z,991.27
2018-10-07T08:24:18.220Z,991.27
2018-10-07T08:25:18.395Z,991.31
2018-10-07T08:26:18.570Z,991.33
2018-10-07T08:27:18.745Z,991.34
2018-10-07T08:28:18.923Z,991.37
2018-10-07T08:29:19.103Z,991.33
2018-10-07T08:30:19.281Z,991.36
2018-10-07T08:31:19.461Z,991.40
2018-10-07T08:32:19.646Z,991.42
2018-10-07T08:33:19.818Z,991.42
2018-10-07T08:34:19.995Z,991.46
2018-10-07T08:35:20.259Z,991.43
2018-10-07T08:36:20.369Z,991.46
2018-10-07T08:37:20.540Z,991.49
2018-10-07T08:38:20.718Z,991.46
2018-10-07T08:39:20.902Z,991.49
2018-10-07T08:40:21.073Z,991.51
2018-10-07T08:41:21.244Z,991.56
2018-10-07T08:42:21.426Z,991.61
2018-10-07T08:43:21.610Z,991.67
2018-10-07T08:44:21.777Z,991.69
2018-10-07T08:45:21.960Z,991.68
2018-10-07T08:46:22.138Z,991.71
2018-10-07T08:47:22.313Z,991.73
2018-10-07T08:48:22.496Z,991.74
2018-10-07T08:49:22.660Z,991.73
2018-10-07T08:50:22.836Z,991.78
2018-10-07T08:51:23.024Z,991.76
2018-10-07T08:52:23.194Z,991.80
2018-10-07T08:53:23.402Z,991.86
2018-10-07T08:54:23.539Z,991.87
2018-10-07T08:55:23.721Z,991.88
2018-10-07T08:56:23.956Z,991.93
2018-10-07T08:57:24.080Z,991.93
2018-10-07T08:58:24.257Z,991.99
2018-10-07T08:59:24.439Z,991.98
2018-10-07T09:00:24.612Z,991.95
2018-10-07T09:01:24.799Z,991.98
2018-10-07T09:02:24.980Z,991.98
2018-10-07T09:03:25.162Z,992.01
2018-10-07T09:04:25.335Z,991.97
2018-10-07T09:05:25.540Z,992.09
2018-10-07T09:06:25.732Z,992.06
2018-10-07T09:07:25.869Z,992.07
2018-10-07T09:08:26.039Z,992.08
2018-10-07T09:09:26.209Z,992.05
2018-10-07T09:10:26.392Z,992.08
2018-10-07T09:11:26.568Z,992.09
2018-10-07T09:12:26.746Z,992.13
2018-10-07T09:13:26.932Z,992.16
2018-10-07T09:14:27.113Z,992.17
2018-10-07T09:15:27.284Z,992.20
2018-10-07T09:16:27.462Z,992.27
2018-10-07T09:17:27.641Z,992.31
2018-10-07T09:18:27.826Z,992.33
2018-10-07T09:19:28.000Z,992.35
2018-10-07T09:20:28.183Z,992.38
2018-10-07T09:21:28.368Z,992.42
2018-10-07T09:22:28.535Z,992.43
2018-10-07T09:23:28.716Z,992.44
2018-10-07T09:24:28.889Z,992.47
2018-10-07T09:25:29.060Z,992.48
2018-10-07T09:26:29.233Z,992.51
2018-10-07T09:27:29.482Z,992.54
2018-10-07T09:28:29.598Z,992.57
2018-10-07T09:29:29.776Z,992.56
2018-10-07T09:30:29.963Z,992.53
2018-10-07T09:31:30.132Z,992.59
2018-10-07T09:32:30.398Z,992.59
2018-10-07T09:33:30.489Z,992.56
2018-10-07T09:34:30.672Z,992.55
2018-10-07T09:35:30.851Z,992.60
2018-10-07T09:36:31.037Z,992.59
2018-10-07T09:37:31.209Z,992.66
2018-10-07T09:38:31.385Z,992.62
2018-10-07T09:39:31.666Z,992.66
2018-10-07T09:40:31.757Z,992.66
2018-10-07T09:41:31.926Z,992.64
2018-10-07T09:42:32.102Z,992.71
2018-10-07T09:43:32.272Z,992.67
2018-10-07T09:44:32.457Z,992.63
2018-10-07T09:45:32.643Z,992.66
2018-10-07T09:46:32.805Z,992.67
2018-10-07T09:47:32.986Z,992.63
2018-10-07T09:48:33.161Z,992.65
2018-10-07T09:49:33.344Z,992.70
2018-10-07T09:50:33.536Z,992.74
2018-10-07T09:51:33.695Z,992.73
2018-10-07T09:52:33.884Z,992.75
2018-10-07T09:53:34.061Z,992.74
2018-10-07T09:54:34.228Z,992.75
2018-10-07T09:55:34.416Z,992.71
2018-10-07T09:56:34.591Z,992.69
2018-10-07T09:57:34.788Z,992.70
2018-10-07T09:58:34.967Z,992.68
2018-10-07T09:59:35.143Z,992.69
2018-10-07T10:00:35.321Z,992.74
2018-10-07T10:01:35.506Z,992.74
2018-10-07T10:02:35.672Z,992.74
2018-10-07T10:03:35.850Z,992.70
2018-10-07T10:04:36.043Z,992.69
2018-10-07T10:05:36.208Z,992.72
2018-10-07T10:06:36.385Z,992.68
2018-10-07T10:07:36.576Z,992.74
2018-10-07T10:08:36.755Z,992.74
2018-10-07T10:09:37.093Z,992.72
2018-10-07T10:10:37.136Z,992.76
2018-10-07T10:11:37.309Z,992.82
2018-10-07T10:12:37.488Z,992.82
2018-10-07T10:13:37.673Z,992.83
2018-10-07T10:14:37.846Z,992.86
2018-10-07T10:15:38.018Z,992.84
2018-10-07T10:16:38.198Z,992.89
2018-10-07T10:17:38.427Z,992.95
2018-10-07T10:18:38.578Z,992.91
2018-10-07T10:19:38.795Z,992.97
2018-10-07T10:20:38.910Z,993.00
2018-10-07T10:21:39.088Z,993.05
2018-10-07T10:22:39.348Z,993.02
2018-10-07T10:23:39.462Z,993.02
2018-10-07T10:24:39.645Z,993.04
2018-10-07T10:25:39.820Z,993.04
2018-10-07T10:26:40.000Z,993.05
2018-10-07T10:27:40.178Z,993.05
2018-10-07T10:28:40.355Z,993.08
2018-10-07T10:29:40.532Z,993.08
2018-10-07T10:30:40.711Z,993.11
2018-10-07T10:31:40.889Z,993.07
2018-10-07T10:32:41.072Z,993.08
2018-10-07T10:33:41.244Z,993.07
2018-10-07T10:34:41.433Z,993.09
2018-10-07T10:35:41.593Z,993.09
2018-10-07T10:36:41.886Z,993.08
2018-10-07T10:37:41.956Z,993.09
2018-10-07T10:38:42.136Z,993.08
2018-10-07T10:39:42.364Z,993.08
2018-10-07T10:40:42.510Z,993.07
2018-10-07T10:41:42.671Z,993.09
2018-10-07T10:42:42.996Z,993.08
2018-10-07T10:43:43.052Z,993.07
2018-10-07T10:44:43.225Z,993.15
2018-10-07T10:45:43.406Z,993.18
2018-10-07T10:46:43.589Z,993.18
2018-10-07T10:47:43.766Z,993.16
2018-10-07T10:48:43.948Z,993.20
2018-10-07T10:49:44.126Z,993.18
2018-10-07T10:50:44.308Z,993.19
2018-10-07T10:51:44.495Z,993.19
2018-10-07T10:52:44.659Z,993.24
2018-10-07T10:53:44.839Z,993.23
2018-10-07T10:54:45.029Z,993.20
2018-10-07T10:55:45.209Z,993.16
2018-10-07T10:56:45.391Z,993.15
2018-10-07T10:57:45.569Z,993.14
2018-10-07T10:58:45.740Z,993.12
2018-10-07T10:59:45.921Z,993.12
2018-10-07T11:00:46.110Z,993.15
2018-10-07T11:01:46.276Z,993.17
2018-10-07T11:02:46.454Z,993.15
2018-10-07T11:03:46.624Z,993.17
2018-10-07T11:04:46.806Z,993.22
2018-10-07T11:05:46.982Z,993.26
2018-10-07T11:06:47.383Z,993.23
2018-10-07T11:07:47.387Z,993.20
2018-10-07T11:08:47.569Z,993.19
2018-10-07T11:09:47.757Z,993.21
2018-10-07T11:10:47.947Z,993.27
2018-10-07T11:11:48.206Z,993.23
2018-10-07T11:12:48.288Z,993.31
2018-10-07T11:13:48.657Z,993.29
2018-10-07T11:14:48.641Z,993.29
2018-10-07T11:15:48.946Z,993.31
2018-10-07T11:16:48.997Z,993.32
2018-10-07T11:17:49.165Z,993.38
2018-10-07T11:18:49.346Z,993.36
2018-10-07T11:19:49.517Z,993.36
2018-10-07T11:20:49.702Z,993.38
2018-10-07T11:21:49.869Z,993.38
2018-10-07T11:22:50.050Z,993.37
2018-10-07T11:23:50.222Z,993.36
2018-10-07T11:24:50.421Z,993.34
2018-10-07T11:25:50.572Z,993.34
2018-10-07T11:26:50.759Z,993.33
2018-10-07T11:27:50.936Z,993.33
2018-10-07T11:28:51.134Z,993.37
2018-10-07T11:29:51.290Z,993.33
2018-10-07T11:30:51.475Z,993.34
2018-10-07T11:31:51.651Z,993.32
2018-10-07T11:32:51.818Z,993.31
2018-10-07T11:33:51.998Z,993.29
2018-10-07T11:34:52.244Z,993.36
2018-10-07T11:35:52.353Z,993.39
2018-10-07T11:36:52.531Z,993.42
2018-10-07T11:37:52.709Z,993.41
2018-10-07T11:38:52.909Z,993.35
2018-10-07T11:39:53.079Z,993.40
2018-10-07T11:40:53.342Z,993.38
2018-10-07T11:41:53.433Z,993.36
2018-10-07T11:42:53.618Z,993.39
2018-10-07T11:43:53.799Z,993.38
2018-10-07T11:44:53.973Z,993.42
2018-10-07T11:45:54.148Z,993.37
2018-10-07T11:46:54.358Z,993.42
2018-10-07T11:47:54.536Z,993.39
2018-10-07T11:48:54.709Z,993.40
2018-10-07T11:49:54.888Z,993.40
2018-10-07T11:50:55.067Z,993.40
2018-10-07T11:51:55.251Z,993.40
2018-10-07T11:52:55.535Z,993.37
2018-10-07T11:53:55.605Z,993.35
2018-10-07T11:54:55.778Z,993.35
2018-10-07T11:55:55.958Z,993.35
2018-10-07T11:56:56.133Z,993.32
2018-10-07T11:57:56.316Z,993.35
2018-10-07T11:58:56.502Z,993.38
2018-10-07T11:59:56.663Z,993.35
2018-10-07T12:00:56.846Z,993.36
2018-10-07T12:01:57.018Z,993.43
2018-10-07T12:02:57.197Z,993.41
2018-10-07T12:03:57.414Z,993.40
2018-10-07T12:04:57.539Z,993.44
2018-10-07T12:05:57.715Z,993.39
2018-10-07T12:06:57.904Z,993.38
2018-10-07T12:07:58.071Z,993.42
2018-10-07T12:08:58.277Z,993.41
2018-10-07T12:09:58.428Z,993.42
2018-10-07T12:10:58.603Z,993.40
2018-10-07T12:11:58.786Z,993.40
2018-10-07T12:12:58.962Z,993.38
2018-10-07T12:13:59.140Z,993.35
2018-10-07T12:14:59.320Z,993.37
2018-10-07T12:15:59.495Z,993.35
2018-10-07T12:16:59.682Z,993.37
2018-10-07T12:17:59.859Z,993.40
2018-10-07T12:19:00.024Z,993.44
2018-10-07T12:20:00.210Z,993.41
2018-10-07T12:21:00.373Z,993.36
2018-10-07T12:22:00.555Z,993.39
2018-10-07T12:23:00.736Z,993.41
2018-10-07T12:24:00.910Z,993.41
2018-10-07T12:25:01.084Z,993.43
2018-10-07T12:26:01.264Z,993.49
2018-10-07T12:27:01.450Z,993.52
2018-10-07T12:28:01.623Z,993.49
2018-10-07T12:29:01.864Z,993.52
2018-10-07T12:30:01.973Z,993.52
2018-10-07T12:31:02.160Z,993.59